Time;durP1;ratioP1;P1;durP2;ratioP2;P2;SDS_P1;SDS_P2;PMS_P1;PMS_P2;Temp;Humidity;BMP_temperature;BMP_pressure;BME280_temperature;BME280_humidity;BME280_pressure;Samples;Min_cycle;Max_cycle;Signal;HPM_P1;HPM_P2
2021/04/09 00:01:02;;;;;;;13.15;5.85;;;3.50;99.90;;;;;;4924296;28;20124;-88
2021/04/09 00:03:24;;;;;;;15.63;5.80;;;3.50;99.90;;;;;;4925266;28;20090;-90
2021/04/09 00:05:47;;;;;;;14.38;6.10;;;3.50;99.90;;;;;;4926140;28;20128;-90
2021/04/09 00:08:10;;;;;;;13.70;5.53;;;3.50;99.90;;;;;;4926446;28;20155;-89
2021/04/09 00:10:32;;;;;;;12.90;6.97;;;3.50;99.90;;;;;;4913294;28;20086;-88
2021/04/09 00:12:56;;;;;;;11.40;6.53;;;3.50;99.90;;;;;;4926191;28;20082;-89
2021/04/09 00:15:20;;;;;;;15.27;7.40;;;3.50;99.90;;;;;;4916419;28;20110;-89
2021/04/09 00:17:44;;;;;;;11.48;5.90;;;3.50;99.90;;;;;;4927830;28;20084;-91
2021/04/09 00:20:08;;;;;;;15.77;5.90;;;3.50;99.90;;;;;;4927612;28;20074;-88
2021/04/09 00:22:30;;;;;;;13.25;6.93;;;3.50;99.90;;;;;;4926558;28;20098;-89
2021/04/09 00:24:53;;;;;;;13.00;6.68;;;3.50;99.90;;;;;;4886441;28;20453;-91
2021/04/09 00:27:16;;;;;;;12.75;6.28;;;3.50;99.90;;;;;;4841523;28;20102;-90
2021/04/09 00:29:39;;;;;;;16.15;6.65;;;3.50;99.90;;;;;;4887465;28;20096;-87
2021/04/09 00:32:04;;;;;;;10.07;6.32;;;3.50;99.90;;;;;;4880198;28;20095;-90
2021/04/09 00:34:28;;;;;;;12.57;6.82;;;;;;;;;;4920429;28;20082;-89
2021/04/09 00:36:51;;;;;;;11.82;6.72;;;3.40;99.90;;;;;;4927163;28;20185;-90
2021/04/09 00:39:13;;;;;;;14.48;7.22;;;3.40;99.90;;;;;;4925577;28;20090;-88
2021/04/09 00:41:40;;;;;;;12.63;6.68;;;3.40;99.90;;;;;;4906162;28;20094;-90
2021/04/09 00:44:03;;;;;;;14.50;7.18;;;3.50;99.90;;;;;;4919527;28;20097;-89
2021/04/09 00:46:25;;;;;;;14.00;6.57;;;3.50;99.90;;;;;;4919205;28;21784;-89
2021/04/09 00:48:49;;;;;;;14.65;6.75;;;3.50;99.90;;;;;;4905253;28;20097;-91
2021/04/09 00:51:18;;;;;;;12.98;6.93;;;3.60;99.90;;;;;;4913239;28;20113;-88
2021/04/09 00:53:43;;;;;;;10.07;6.40;;;3.60;99.90;;;;;;4893997;28;20177;-90
2021/04/09 00:56:08;;;;;;;13.63;5.85;;;3.60;99.90;;;;;;4912085;28;20087;-87
2021/04/09 00:58:31;;;;;;;11.75;5.72;;;;;;;;;;4889730;28;20432;-89
2021/04/09 01:00:54;;;;;;;13.13;6.20;;;3.70;99.90;;;;;;4911773;28;20298;-89
2021/04/09 01:03:18;;;;;;;11.40;6.05;;;;;;;;;;4922207;28;20442;-89
2021/04/09 01:05:42;;;;;;;11.50;5.80;;;;;;;;;;4907347;28;20090;-90
2021/04/09 01:08:07;;;;;;;13.93;5.97;;;;;;;;;;4901895;28;20087;-89
2021/04/09 01:10:30;;;;;;;12.05;6.68;;;3.60;99.90;;;;;;4924724;28;20087;-89
2021/04/09 01:12:53;;;;;;;12.43;6.57;;;3.60;99.90;;;;;;4926491;28;20143;-87
2021/04/09 01:15:18;;;;;;;15.82;6.43;;;3.70;99.90;;;;;;4927031;28;21748;-87
2021/04/09 01:17:47;;;;;;;14.18;5.72;;;3.60;99.90;;;;;;4915247;28;20140;-89
2021/04/09 01:20:30;;;;;;;10.18;6.20;;;3.60;99.90;;;;;;4908706;28;20093;-86
2021/04/09 01:23:06;;;;;;;15.88;6.20;;;3.60;99.90;;;;;;4923630;28;20083;-91
2021/04/09 01:26:14;;;;;;;13.45;6.32;;;3.70;99.90;;;;;;4926057;28;20082;-91
2021/04/09 01:28:50;;;;;;;9.30;5.43;;;3.70;99.90;;;;;;4923173;28;20132;-88
2021/04/09 01:31:42;;;;;;;9.73;4.53;;;3.60;99.90;;;;;;4917050;28;20086;-90
2021/04/09 01:34:08;;;;;;;15.52;6.10;;;3.60;99.90;;;;;;4910729;28;20086;-91
2021/04/09 01:36:37;;;;;;;16.15;6.22;;;3.40;99.90;;;;;;4915775;28;20094;-89
2021/04/09 01:39:07;;;;;;;10.60;5.45;;;3.40;99.90;;;;;;4914181;28;20120;-90
2021/04/09 01:41:31;;;;;;;12.02;5.75;;;3.30;99.90;;;;;;4892667;28;20090;-89
2021/04/09 01:43:57;;;;;;;9.77;5.95;;;3.30;99.90;;;;;;4917275;28;20162;-90
2021/04/09 01:46:19;;;;;;;;;;;3.30;99.90;;;;;;4875271;28;20101;-89
2021/04/09 01:48:47;;;;;;;9.00;5.75;;;3.30;99.90;;;;;;4906817;28;19963;-90
2021/04/09 01:51:11;;;;;;;14.40;5.60;;;;;;;;;;4924478;28;20092;-91
2021/04/09 01:53:36;;;;;;;9.43;5.05;;;3.30;99.90;;;;;;4925115;28;20231;-90
2021/04/09 01:56:00;;;;;;;15.52;4.70;;;3.30;99.90;;;;;;4919574;28;20128;-90
2021/04/09 01:58:24;;;;;;;10.88;4.85;;;3.30;99.90;;;;;;4917351;28;20156;-90
2021/04/09 02:00:47;;;;;;;12.45;5.93;;;2.70;99.90;;;;;;4930470;28;20139;-92
2021/04/09 02:03:15;;;;;;;13.43;5.65;;;3.20;99.90;;;;;;4905663;28;20148;-90
2021/04/09 02:05:41;;;;;;;10.80;5.38;;;3.20;99.90;;;;;;4925180;28;20139;-91
2021/04/09 02:08:10;;;;;;;11.07;5.20;;;3.30;99.90;;;;;;4888822;28;20082;-88
2021/04/09 02:10:33;;;;;;;8.65;5.05;;;3.20;99.90;;;;;;4928139;28;20087;-89
2021/04/09 02:12:56;;;;;;;12.48;5.90;;;3.20;99.90;;;;;;4898873;28;21573;-90
2021/04/09 02:15:21;;;;;;;8.82;4.95;;;3.20;99.90;;;;;;4839145;28;20087;-88
2021/04/09 02:17:44;;;;;;;11.32;5.45;;;3.10;99.90;;;;;;4909458;28;20588;-89
2021/04/09 02:20:11;;;;;;;8.75;5.00;;;3.00;99.90;;;;;;4928855;28;20146;-87
2021/04/09 02:22:35;;;;;;;13.00;5.03;;;3.00;99.90;;;;;;4931219;28;20090;-89
2021/04/09 02:24:57;;;;;;;15.98;5.93;;;3.00;99.90;;;;;;4880154;28;20091;-91
2021/04/09 02:27:21;;;;;;;11.68;5.78;;;3.00;99.90;;;;;;4927523;28;20094;-90
2021/04/09 02:29:44;;;;;;;9.57;4.93;;;;;;;;;;4909366;28;20128;-90
2021/04/09 02:32:07;;;;;;;16.08;5.03;;;3.00;99.90;;;;;;4928601;28;20132;-91
2021/04/09 02:34:30;;;;;;;10.20;5.05;;;2.90;99.90;;;;;;4918201;28;20088;-89
2021/04/09 02:36:53;;;;;;;11.05;4.95;;;;;;;;;;4925145;28;20086;-90
2021/04/09 02:39:20;;;;;;;11.63;5.05;;;3.00;99.90;;;;;;4918766;28;20110;-88
2021/04/09 02:41:47;;;;;;;9.18;4.60;;;2.90;99.90;;;;;;4872919;28;20091;-91
2021/04/09 02:44:12;;;;;;;11.73;4.80;;;3.00;99.90;;;;;;4885079;28;20087;-86
2021/04/09 02:46:40;;;;;;;13.17;5.03;;;3.00;99.90;;;;;;4925722;28;20129;-88
2021/04/09 02:49:09;;;;;;;14.20;5.13;;;3.00;99.90;;;;;;4926394;28;20094;-90
2021/04/09 02:51:35;;;;;;;11.65;5.68;;;2.90;99.90;;;;;;4917195;28;20136;-90
2021/04/09 02:54:01;;;;;;;11.57;4.82;;;2.80;99.90;;;;;;4892322;28;20186;-91
2021/04/09 02:56:30;;;;;;;9.18;4.03;;;2.80;99.90;;;;;;4909234;28;20106;-87
2021/04/09 02:58:55;;;;;;;10.15;4.72;;;2.80;99.90;;;;;;4927791;28;20084;-90
2021/04/09 03:01:23;;;;;;;13.30;5.10;;;2.70;99.90;;;;;;4927579;28;20086;-90
2021/04/09 03:03:47;;;;;;;17.92;5.95;;;2.70;99.90;;;;;;4919959;28;20084;-91
2021/04/09 03:06:11;;;;;;;10.23;4.80;;;2.60;99.90;;;;;;4910056;28;20106;-89
2021/04/09 03:08:36;;;;;;;15.73;5.53;;;2.60;99.90;;;;;;4927231;28;20095;-91
2021/04/09 03:11:01;;;;;;;6.70;4.43;;;2.60;99.90;;;;;;4920446;28;20099;-90
2021/04/09 03:13:25;;;;;;;10.43;4.78;;;2.60;99.90;;;;;;4911829;28;20622;-90
2021/04/09 03:15:52;;;;;;;14.85;4.90;;;2.60;99.90;;;;;;4926444;28;20094;-89
2021/04/09 03:18:16;;;;;;;14.18;4.68;;;2.60;99.90;;;;;;4926819;28;20083;-91
2021/04/09 03:20:39;;;;;;;11.50;4.85;;;2.60;99.90;;;;;;4927057;28;20089;-90
2021/04/09 03:23:02;;;;;;;18.13;4.88;;;2.70;99.90;;;;;;4928651;28;20086;-91
2021/04/09 03:25:25;;;;;;;11.98;4.07;;;;;;;;;;4926305;28;20150;-90
2021/04/09 03:27:47;;;;;;;15.77;4.65;;;2.60;99.90;;;;;;4927526;28;20094;-90
2021/04/09 03:30:13;;;;;;;12.05;4.95;;;5.90;99.90;;;;;;4928120;28;20145;-91
2021/04/09 03:32:39;;;;;;;10.05;4.03;;;2.60;99.90;;;;;;4820948;28;20085;-90
2021/04/09 03:35:01;;;;;;;12.32;4.55;;;;;;;;;;4847833;28;20086;-91
2021/04/09 03:37:24;;;;;;;9.52;4.43;;;;;;;;;;4907219;28;20095;-89
2021/04/09 03:39:49;;;;;;;8.23;4.40;;;2.60;99.90;;;;;;4838834;28;20110;-90
2021/04/09 03:42:12;;;;;;;10.13;4.55;;;2.70;99.90;;;;;;4876295;28;20095;-91
2021/04/09 03:44:36;;;;;;;10.68;3.95;;;2.70;99.90;;;;;;4900844;28;20096;-85
2021/04/09 03:46:59;;;;;;;16.73;4.75;;;2.70;99.90;;;;;;4896922;28;20122;-91
2021/04/09 03:49:24;;;;;;;10.55;4.85;;;2.80;99.90;;;;;;4885629;28;20477;-92
2021/04/09 03:51:46;;;;;;;9.43;4.20;;;2.70;99.90;;;;;;4917622;28;20103;-89
2021/04/09 03:54:09;;;;;;;14.65;4.53;;;;;;;;;;4928735;28;20512;-90
2021/04/09 03:56:32;;;;;;;8.43;4.75;;;2.70;99.90;;;;;;4925176;28;20464;-90
2021/04/09 03:58:54;;;;;;;11.32;4.15;;;2.70;99.90;;;;;;4904459;28;20082;-91
2021/04/09 04:01:17;;;;;;;8.70;3.85;;;2.80;99.90;;;;;;4922542;28;20610;-91
2021/04/09 04:03:41;;;;;;;13.02;4.43;;;2.70;99.90;;;;;;4910364;28;20117;-84
2021/04/09 04:06:04;;;;;;;9.23;4.72;;;2.70;99.90;;;;;;4923708;28;20080;-87
2021/04/09 04:08:26;;;;;;;11.57;4.50;;;2.70;99.90;;;;;;4925325;28;20095;-88
2021/04/09 04:10:49;;;;;;;10.43;4.72;;;;;;;;;;4918101;28;20395;-91
2021/04/09 04:13:12;;;;;;;13.98;4.88;;;2.70;99.90;;;;;;4926621;28;20090;-91
2021/04/09 04:15:34;;;;;;;10.60;4.30;;;2.70;99.90;;;;;;4917232;28;20074;-89
2021/04/09 04:17:57;;;;;;;15.10;4.88;;;2.60;99.90;;;;;;4915875;28;20082;-88
2021/04/09 04:20:21;;;;;;;9.75;4.60;;;2.70;99.90;;;;;;4916116;28;20122;-90
2021/04/09 04:22:43;;;;;;;16.48;5.38;;;2.70;99.90;;;;;;4926354;28;20083;-88
2021/04/09 04:25:07;;;;;;;12.20;5.03;;;;;;;;;;4885023;28;20118;-86
2021/04/09 04:27:32;;;;;;;10.95;5.28;;;2.70;99.90;;;;;;4895656;28;20118;-88
2021/04/09 04:29:54;;;;;;;13.32;4.75;;;2.70;99.90;;;;;;4926112;28;20094;-86
2021/04/09 04:32:23;;;;;;;13.13;4.22;;;;;;;;;;4860181;28;20100;-90
2021/04/09 04:34:46;;;;;;;11.30;4.28;;;;;;;;;;4872678;28;20086;-90
2021/04/09 04:37:10;;;;;;;8.45;3.88;;;;;;;;;;4847869;28;20410;-91
2021/04/09 04:39:32;;;;;;;7.82;4.03;;;2.70;99.90;;;;;;4912603;28;20100;-91
2021/04/09 04:41:56;;;;;;;13.32;4.95;;;2.60;99.90;;;;;;4911532;28;20565;-90
2021/04/09 04:44:22;;;;;;;15.13;4.20;;;;;;;;;;4815090;28;20101;-86
2021/04/09 04:46:47;;;;;;;9.20;4.10;;;2.70;99.90;;;;;;4874399;28;20091;-89
2021/04/09 04:49:09;;;;;;;;;;;2.70;99.90;;;;;;4891191;28;20112;-90
2021/04/09 04:51:34;;;;;;;9.00;4.10;;;2.70;99.90;;;;;;4917835;28;19977;-89
2021/04/09 04:53:57;;;;;;;10.93;3.90;;;2.70;99.90;;;;;;4925762;28;20147;-90
2021/04/09 04:56:20;;;;;;;12.85;4.60;;;;;;;;;;4900038;28;20086;-89
2021/04/09 04:58:44;;;;;;;8.13;4.07;;;2.70;99.90;;;;;;4879027;28;20109;-90
2021/04/09 05:01:11;;;;;;;11.63;4.03;;;;;;;;;;4839619;28;20083;-89
2021/04/09 05:03:34;;;;;;;8.10;4.22;;;2.80;99.90;;;;;;4865435;28;20546;-88
2021/04/09 05:05:57;;;;;;;14.15;4.55;;;2.80;99.90;;;;;;4902915;28;20173;-89
2021/04/09 05:08:19;;;;;;;10.98;4.43;;;2.80;99.90;;;;;;4924902;28;20094;-88
2021/04/09 05:10:43;;;;;;;15.25;3.67;;;2.90;99.90;;;;;;4927761;28;20083;-90
2021/04/09 05:13:05;;;;;;;14.82;4.22;;;2.90;99.90;;;;;;4927873;28;20144;-89
2021/04/09 05:15:30;;;;;;;12.60;3.63;;;2.90;99.90;;;;;;4913169;28;20083;-88
2021/04/09 05:17:56;;;;;;;7.85;3.53;;;3.00;99.90;;;;;;4913434;28;20105;-88
2021/04/09 05:20:20;;;;;;;10.40;3.53;;;;;;;;;;4908051;28;20095;-89
2021/04/09 05:22:44;;;;;;;11.98;3.78;;;;;;;;;;4916598;28;20506;-90
2021/04/09 05:25:10;;;;;;;8.63;3.63;;;;;;;;;;4898465;28;20090;-88
2021/04/09 05:27:34;;;;;;;10.77;3.85;;;;;;;;;;4879304;28;20090;-86
2021/04/09 05:29:59;;;;;;;10.95;4.03;;;;;;;;;;4898676;28;20093;-91
2021/04/09 05:32:22;;;;;;;6.72;3.75;;;;;;;;;;4918690;28;20173;-90
2021/04/09 05:34:45;;;;;;;13.18;4.30;;;3.20;99.90;;;;;;4929778;28;20083;-90
2021/04/09 05:37:08;;;;;;;11.27;3.92;;;3.20;99.90;;;;;;4920483;28;20491;-90
2021/04/09 05:39:33;;;;;;;11.85;4.50;;;3.20;99.90;;;;;;4931238;28;20097;-89
2021/04/09 05:41:56;;;;;;;10.05;4.80;;;3.30;99.90;;;;;;4921802;28;20082;-89
2021/04/09 05:44:20;;;;;;;10.65;4.18;;;3.30;99.90;;;;;;4931269;28;20102;-89
2021/04/09 05:46:43;;;;;;;14.50;3.83;;;;;;;;;;4930004;28;20090;-90
2021/04/09 05:49:05;;;;;;;16.55;4.03;;;;;;;;;;4930333;28;20086;-90
2021/04/09 05:51:30;;;;;;;7.45;3.75;;;3.40;99.90;;;;;;4927284;28;20074;-88
2021/04/09 05:53:53;;;;;;;11.13;4.03;;;3.40;99.90;;;;;;4929453;28;20090;-89
2021/04/09 05:56:17;;;;;;;16.38;4.28;;;3.40;99.90;;;;;;4921064;28;20132;-89
2021/04/09 05:58:44;;;;;;;8.57;3.88;;;;;;;;;;4848540;28;20098;-90
2021/04/09 06:01:10;;;;;;;12.00;4.85;;;;;;;;;;4804125;28;20565;-89
2021/04/09 06:03:33;;;;;;;11.60;4.82;;;;;;;;;;4902541;28;20139;-88
2021/04/09 06:05:57;;;;;;;15.75;4.57;;;3.90;99.90;;;;;;4927004;28;20086;-87
2021/04/09 06:08:19;;;;;;;14.25;4.13;;;4.20;99.90;;;;;;4901618;28;20097;-90
2021/04/09 06:10:43;;;;;;;10.57;4.05;;;;;;;;;;4926247;28;20083;-89
2021/04/09 06:13:07;;;;;;;10.73;4.05;;;4.60;99.90;;;;;;4928461;28;20529;-88
2021/04/09 06:15:32;;;;;;;9.63;4.80;;;;;;;;;;4905472;28;20082;-89
2021/04/09 06:17:57;;;;;;;;;;;4.40;99.90;;;;;;4873998;28;20161;-87
2021/04/09 06:20:19;;;;;;;7.10;3.95;;;4.50;99.90;;;;;;4929618;28;20016;-90
2021/04/09 06:22:43;;;;;;;15.98;4.72;;;4.50;99.90;;;;;;4895441;28;20094;-90
2021/04/09 06:25:07;;;;;;;12.18;4.35;;;;;;;;;;4927571;28;20571;-89
2021/04/09 06:27:29;;;;;;;10.35;4.10;;;4.50;99.90;;;;;;4917682;28;20090;-87
2021/04/09 06:29:52;;;;;;;9.40;4.45;;;4.70;99.90;;;;;;4909748;28;20090;-90
2021/04/09 06:32:15;;;;;;;9.57;3.88;;;4.80;99.90;;;;;;4925371;28;20082;-90
2021/04/09 06:34:38;;;;;;;13.85;4.70;;;5.20;99.90;;;;;;4927818;28;20082;-89
2021/04/09 06:37:01;;;;;;;14.85;5.07;;;5.30;99.90;;;;;;4915464;28;20093;-90
2021/04/09 06:39:23;;;;;;;15.55;4.38;;;5.20;99.90;;;;;;4924332;28;20086;-90
2021/04/09 06:41:46;;;;;;;14.57;4.28;;;5.20;99.90;;;;;;4857057;28;20090;-89
2021/04/09 06:44:09;;;;;;;8.73;3.40;;;5.10;99.90;;;;;;4870053;28;20079;-86
2021/04/09 06:46:33;;;;;;;14.68;4.40;;;5.10;99.90;;;;;;4921604;28;20105;-89
2021/04/09 06:48:56;;;;;;;9.77;3.60;;;5.30;99.90;;;;;;4928106;28;20086;-91
2021/04/09 06:51:20;;;;;;;9.20;3.78;;;5.60;99.90;;;;;;4927680;28;20094;-89
2021/04/09 06:53:47;;;;;;;14.60;4.78;;;5.90;99.90;;;;;;4929426;28;20089;-88
2021/04/09 06:56:11;;;;;;;9.05;3.72;;;6.20;99.90;;;;;;4928603;28;20090;-91
2021/04/09 06:58:34;;;;;;;13.13;4.15;;;6.40;99.90;;;;;;4919351;28;20109;-90
2021/04/09 07:00:59;;;;;;;14.52;4.25;;;6.40;99.90;;;;;;4925952;28;20410;-90
2021/04/09 07:03:22;;;;;;;11.00;4.43;;;6.50;99.90;;;;;;4908473;28;20094;-90
2021/04/09 07:05:45;;;;;;;9.60;3.97;;;6.50;99.90;;;;;;4924001;28;20109;-87
2021/04/09 07:08:09;;;;;;;14.93;4.70;;;6.40;99.90;;;;;;4919694;28;20114;-89
2021/04/09 07:10:31;;;;;;;13.18;4.82;;;6.40;99.90;;;;;;4883267;28;20089;-89
2021/04/09 07:13:04;;;;;;;12.85;5.00;;;6.60;99.90;;;;;;4902449;28;20098;-87
2021/04/09 07:15:28;;;;;;;11.77;4.60;;;6.70;99.90;;;;;;4888058;28;20208;-89
2021/04/09 07:17:51;;;;;;;10.27;4.45;;;6.60;99.90;;;;;;4894553;28;21369;-88
2021/04/09 07:20:18;;;;;;;11.77;4.88;;;6.70;99.90;;;;;;4874308;28;20121;-89
2021/04/09 07:22:42;;;;;;;10.30;4.80;;;6.80;99.90;;;;;;4915423;28;20086;-91
2021/04/09 07:25:08;;;;;;;11.48;4.88;;;;;;;;;;4921772;28;20449;-87
2021/04/09 07:27:30;;;;;;;;;;;;;;;;;;4925786;28;20453;-86
2021/04/09 07:29:55;;;;;;;9.38;4.30;;;6.80;99.90;;;;;;4929395;28;20016;-91
2021/04/09 07:32:30;;;;;;;15.50;5.68;;;6.80;99.90;;;;;;4918937;28;20116;-89
2021/04/09 07:34:53;;;;;;;11.30;5.30;;;7.10;99.90;;;;;;4918336;28;20090;-90
2021/04/09 07:37:16;;;;;;;16.55;4.75;;;7.30;99.90;;;;;;4920452;28;20124;-89
2021/04/09 07:39:38;;;;;;;9.23;4.40;;;7.10;99.90;;;;;;4918909;28;20441;-88
2021/04/09 07:42:09;;;;;;;12.07;4.82;;;7.00;99.90;;;;;;4925090;28;20499;-89
2021/04/09 07:44:37;;;;;;;13.27;5.35;;;7.30;99.90;;;;;;4921701;28;20083;-90
2021/04/09 07:47:09;;;;;;;9.43;5.25;;;7.50;99.90;;;;;;4908904;28;20082;-90
2021/04/09 07:49:32;;;;;;;11.32;5.20;;;7.70;99.90;;;;;;4921029;28;20090;-89
2021/04/09 07:52:09;;;;;;;17.58;6.72;;;7.60;99.90;;;;;;4927902;28;20101;-88
2021/04/09 07:54:32;;;;;;;11.75;5.70;;;7.60;99.90;;;;;;4926139;28;20106;-91
2021/04/09 07:56:55;;;;;;;14.45;6.13;;;;;;;;;;4886090;28;20095;-89
2021/04/09 07:59:36;;;;;;;16.02;6.65;;;7.10;99.90;;;;;;4900051;28;20106;-88
2021/04/09 08:01:59;;;;;;;17.83;6.82;;;6.70;99.90;;;;;;4927699;28;20169;-85
2021/04/09 08:04:21;;;;;;;20.45;6.40;;;6.80;99.90;;;;;;4927331;28;20090;-90
2021/04/09 08:06:44;;;;;;;18.00;6.30;;;6.70;99.90;;;;;;4891032;28;20101;-87
2021/04/09 08:09:12;;;;;;;15.13;6.55;;;6.80;99.90;;;;;;4884324;28;20088;-87
2021/04/09 08:11:39;;;;;;;11.60;5.95;;;7.10;99.90;;;;;;4892836;28;20144;-87
2021/04/09 08:14:12;;;;;;;15.65;6.25;;;7.40;99.90;;;;;;4891371;28;20579;-87
2021/04/09 08:16:39;;;;;;;15.50;6.03;;;7.70;99.90;;;;;;4865750;28;20097;-88
2021/04/09 08:19:06;;;;;;;12.05;5.35;;;7.70;99.90;;;;;;4853323;28;20398;-85
2021/04/09 08:21:43;;;;;;;13.90;6.00;;;7.70;99.90;;;;;;4834109;28;92786;-89
2021/04/09 08:24:09;;;;;;;17.85;6.25;;;8.00;99.90;;;;;;4822900;28;20094;-89
2021/04/09 08:27:07;;;;;;;17.02;6.72;;;8.30;99.90;;;;;;4826807;28;20082;-87
2021/04/09 08:29:54;;;;;;;14.95;6.65;;;8.50;99.90;;;;;;4810042;28;20165;-87
2021/04/09 08:32:22;;;;;;;16.50;6.32;;;8.90;99.90;;;;;;4825825;28;20125;-86
2021/04/09 08:35:29;;;;;;;13.93;5.50;;;9.20;99.90;;;;;;4827304;28;20529;-89
2021/04/09 08:38:20;;;;;;;16.87;6.63;;;9.50;99.90;;;;;;4818754;28;20093;-88
2021/04/09 08:40:48;;;;;;;12.43;6.03;;;9.60;99.90;;;;;;4811434;28;20105;-88
2021/04/09 08:46:33;;;;;;;13.75;5.50;;;9.70;99.90;;;;;;4808467;28;20092;-89
2021/04/09 08:49:13;;;;;;;13.85;6.38;;;9.40;99.90;;;;;;4823414;28;20558;-90
2021/04/09 08:52:21;;;;;;;14.63;6.85;;;9.30;99.90;;;;;;4825410;28;20114;-84
2021/04/09 08:55:33;;;;;;;19.33;6.75;;;9.60;99.90;;;;;;4803639;28;20095;-88
2021/04/09 08:58:23;;;;;;;16.30;7.07;;;10.30;99.90;;;;;;4793942;28;20176;-88
2021/04/09 09:01:15;;;;;;;21.08;7.63;;;10.40;99.90;;;;;;4813194;28;20103;-87
2021/04/09 09:03:48;;;;;;;15.95;6.95;;;10.30;99.90;;;;;;4825120;28;20081;-86
2021/04/09 09:06:45;;;;;;;15.00;6.30;;;10.40;99.90;;;;;;4811035;28;20094;-88
2021/04/09 09:09:28;;;;;;;14.35;7.03;;;10.00;99.90;;;;;;4826915;28;20085;-85
2021/04/09 09:12:06;;;;;;;13.65;6.20;;;9.20;99.90;;;;;;4833957;28;20488;-85
2021/04/09 09:18:38;;;;;;;22.13;6.18;;;8.70;99.90;;;;;;4836305;28;20083;-87
2021/04/09 09:21:14;;;;;;;12.35;6.03;;;8.30;99.90;;;;;;4832319;28;20096;-86
2021/04/09 09:24:04;;;;;;;12.50;5.57;;;8.20;99.90;;;;;;4845277;28;20310;-86
2021/04/09 09:26:40;;;;;;;15.80;6.93;;;8.30;99.90;;;;;;4838098;28;20090;-87
2021/04/09 09:29:25;;;;;;;14.68;7.10;;;8.30;99.90;;;;;;4830980;28;20553;-86
2021/04/09 09:32:16;;;;;;;14.85;7.13;;;8.30;99.90;;;;;;4838091;28;20088;-87
2021/04/09 09:38:48;;;;;;;15.25;6.65;;;8.00;99.90;;;;;;4827621;28;20083;-87
2021/04/09 09:41:58;;;;;;;15.88;6.32;;;8.10;99.90;;;;;;4839718;28;20165;-85
2021/04/09 09:45:00;;;;;;;14.32;6.35;;;8.10;99.90;;;;;;4830258;28;20103;-87
2021/04/09 09:50:31;;;;;;;17.73;6.43;;;8.50;99.90;;;;;;4811648;28;20173;-85
2021/04/09 09:53:08;;;;;;;11.95;5.55;;;8.50;99.90;;;;;;4817777;28;20114;-87
2021/04/09 09:55:52;;;;;;;12.60;5.72;;;8.40;99.90;;;;;;4829274;28;20096;-86
2021/04/09 10:02:17;;;;;;;11.70;6.03;;;9.00;99.90;;;;;;4825446;28;20438;-86
2021/04/09 10:04:43;;;;;;;17.10;6.20;;;9.60;99.90;;;;;;4822251;28;20093;-86
2021/04/09 10:07:27;;;;;;;11.52;6.40;;;9.60;99.90;;;;;;4860846;28;20554;-85
2021/04/09 10:09:54;;;;;;;13.00;6.22;;;;;;;;;;4842026;28;20085;-85
2021/04/09 10:12:38;;;;;;;13.88;5.80;;;9.70;99.90;;;;;;4829258;28;20111;-86
2021/04/09 10:15:05;;;;;;;14.50;6.10;;;9.80;99.90;;;;;;4826288;28;20467;-85
2021/04/09 10:17:28;;;;;;;11.85;5.82;;;9.80;99.90;;;;;;4868817;28;20093;-86
2021/04/09 10:20:01;;;;;;;16.20;6.03;;;9.80;99.90;;;;;;4853104;28;20102;-87
2021/04/09 10:22:29;;;;;;;23.13;6.72;;;9.80;99.90;;;;;;4838998;28;20091;-84
2021/04/09 10:25:18;;;;;;;9.52;4.78;;;9.90;99.90;;;;;;4799230;28;20251;-85
2021/04/09 10:45:01;;;;;;;14.32;6.90;;;10.70;99.90;;;;;;4838350;28;20119;-84
2021/04/09 10:47:34;;;;;;;11.75;6.10;;;10.80;99.90;;;;;;4832224;28;20098;-86
2021/04/09 10:50:00;;;;;;;11.90;6.10;;;11.00;99.90;;;;;;4843836;28;20087;-86
2021/04/09 10:52:57;;;;;;;12.30;6.03;;;10.90;99.90;;;;;;4838005;28;20510;-87
2021/04/09 10:55:46;;;;;;;14.15;5.88;;;11.20;99.90;;;;;;4852549;28;20199;-85
2021/04/09 10:58:34;;;;;;;14.05;5.10;;;11.10;99.90;;;;;;4833912;28;20119;-86
2021/04/09 11:01:08;;;;;;;17.15;6.00;;;11.00;99.90;;;;;;4845889;28;20080;-84
2021/04/09 11:03:42;;;;;;;14.10;5.97;;;11.20;99.90;;;;;;4829320;28;21076;-86
2021/04/09 11:06:22;;;;;;;12.00;6.15;;;11.20;99.90;;;;;;4829758;28;20116;-85
2021/04/09 11:09:15;;;;;;;13.68;5.45;;;11.00;99.90;;;;;;4849359;28;20108;-85
2021/04/09 11:12:25;;;;;;;11.95;4.95;;;11.00;99.90;;;;;;4825329;28;20487;-86
2021/04/09 11:15:12;;;;;;;12.80;4.93;;;11.10;99.90;;;;;;4838112;28;20081;-84
2021/04/09 11:18:06;;;;;;;13.50;5.88;;;11.10;99.90;;;;;;4842487;28;20096;-85
2021/04/09 11:20:48;;;;;;;13.23;5.60;;;11.10;99.90;;;;;;4817890;28;20496;-84
2021/04/09 11:23:48;;;;;;;13.68;5.90;;;11.20;99.90;;;;;;4828831;28;20089;-85
2021/04/09 11:26:22;;;;;;;12.32;6.47;;;11.10;99.90;;;;;;4847618;28;20213;-87
2021/04/09 11:28:53;;;;;;;11.93;5.75;;;11.00;99.90;;;;;;4851405;28;20089;-87
2021/04/09 11:31:38;;;;;;;13.07;5.95;;;11.40;99.90;;;;;;4848246;28;20420;-83
2021/04/09 11:34:07;;;;;;;20.08;5.93;;;11.70;99.90;;;;;;4847754;28;20081;-87
2021/04/09 11:36:40;;;;;;;12.25;6.38;;;11.70;99.90;;;;;;4857778;28;20155;-85
2021/04/09 11:39:08;;;;;;;10.07;5.53;;;11.70;99.90;;;;;;4893660;28;20083;-82
2021/04/09 11:41:32;;;;;;;14.52;5.30;;;11.60;99.90;;;;;;4890188;28;20079;-85
2021/04/09 11:43:55;;;;;;;14.32;5.38;;;11.50;99.90;;;;;;4893259;28;20086;-86
2021/04/09 11:46:32;;;;;;;13.00;5.10;;;11.50;99.90;;;;;;4877021;28;20137;-84
2021/04/09 11:49:00;;;;;;;13.07;5.72;;;11.40;99.90;;;;;;4874507;28;20084;-85
2021/04/09 11:51:23;;;;;;;15.27;6.03;;;11.40;99.90;;;;;;4865538;28;20117;-85
2021/04/09 11:53:58;;;;;;;15.60;6.07;;;11.30;99.90;;;;;;4861532;28;20563;-85
2021/04/09 11:56:37;;;;;;;9.70;4.82;;;11.40;99.90;;;;;;4878760;28;20548;-85
2021/04/09 11:59:09;;;;;;;16.27;4.82;;;11.60;99.90;;;;;;4876294;28;20076;-84
2021/04/09 12:01:32;;;;;;;15.68;5.63;;;11.70;99.90;;;;;;4879516;28;20100;-85
2021/04/09 12:03:54;;;;;;;13.13;5.72;;;12.00;99.90;;;;;;4878292;28;20087;-85
2021/04/09 12:06:19;;;;;;;8.73;4.70;;;12.00;99.90;;;;;;4880068;28;22739;-86
2021/04/09 12:08:42;;;;;;;9.68;4.93;;;11.70;99.90;;;;;;4878246;28;20087;-85
2021/04/09 12:11:07;;;;;;;8.93;5.32;;;11.70;99.90;;;;;;4878654;28;20084;-85
2021/04/09 12:13:30;;;;;;;10.93;5.05;;;11.60;99.90;;;;;;4880423;28;20080;-85
2021/04/09 12:15:53;;;;;;;15.90;5.65;;;11.40;99.90;;;;;;4881397;28;20530;-86
2021/04/09 12:18:17;;;;;;;13.15;5.70;;;11.60;99.90;;;;;;4878112;28;20091;-86
2021/04/09 12:20:40;;;;;;;12.05;5.95;;;11.70;99.90;;;;;;4879512;28;20445;-85
2021/04/09 12:23:02;;;;;;;11.25;5.18;;;12.10;99.90;;;;;;4872383;28;20092;-84
2021/04/09 12:25:26;;;;;;;7.65;3.88;;;12.10;99.90;;;;;;4879731;28;20086;-87
2021/04/09 12:27:49;;;;;;;8.00;4.45;;;12.10;99.90;;;;;;4879298;28;20384;-88
2021/04/09 12:30:15;;;;;;;9.13;3.83;;;12.00;99.90;;;;;;4883263;28;22207;-86
2021/04/09 12:32:39;;;;;;;9.65;3.88;;;11.80;99.90;;;;;;4877125;28;20167;-86
2021/04/09 12:35:06;;;;;;;10.93;4.18;;;11.70;99.90;;;;;;4880347;28;20087;-84
2021/04/09 12:37:28;;;;;;;9.75;3.42;;;11.90;99.90;;;;;;4873008;28;20075;-84
2021/04/09 12:39:51;;;;;;;8.35;3.70;;;12.10;99.90;;;;;;4886931;28;20122;-84
2021/04/09 12:42:14;;;;;;;8.98;3.92;;;;;;;;;;4875681;28;20096;-85
2021/04/09 12:44:37;;;;;;;8.10;3.42;;;12.10;99.90;;;;;;4880076;28;20537;-84
2021/04/09 12:47:00;;;;;;;7.95;3.35;;;12.00;99.90;;;;;;4875523;28;20110;-84
2021/04/09 12:49:23;;;;;;;5.35;3.85;;;12.20;99.90;;;;;;4877612;28;20103;-84
2021/04/09 12:51:46;;;;;;;7.35;3.00;;;12.20;99.90;;;;;;4883210;28;20077;-82
2021/04/09 12:54:10;;;;;;;10.23;3.55;;;12.30;99.90;;;;;;4891863;28;20081;-84
2021/04/09 12:56:32;;;;;;;10.48;3.17;;;;;;;;;;4861186;28;20443;-84
2021/04/09 12:58:55;;;;;;;7.03;3.00;;;12.30;99.90;;;;;;4846088;28;20099;-83
2021/04/09 13:01:19;;;;;;;6.15;3.38;;;12.40;99.90;;;;;;4856818;28;20538;-86
2021/04/09 13:03:42;;;;;;;7.45;2.97;;;12.70;99.90;;;;;;4860305;28;20552;-84
2021/04/09 13:06:07;;;;;;;9.30;2.65;;;12.60;99.90;;;;;;4859102;28;20091;-84
2021/04/09 13:08:29;;;;;;;8.03;3.00;;;12.40;99.90;;;;;;4859276;28;20098;-83
2021/04/09 13:10:52;;;;;;;9.18;3.35;;;12.30;99.90;;;;;;4860839;28;20090;-82
2021/04/09 13:13:15;;;;;;;5.35;2.97;;;12.20;99.90;;;;;;4856866;28;20094;-84
2021/04/09 13:15:37;;;;;;;6.30;3.03;;;12.20;99.90;;;;;;4858095;28;20085;-84
2021/04/09 13:18:00;;;;;;;6.15;3.10;;;12.30;99.90;;;;;;4855402;28;20504;-81
2021/04/09 13:20:23;;;;;;;7.60;3.15;;;12.40;99.90;;;;;;4859985;28;20550;-83
2021/04/09 13:22:46;;;;;;;11.07;3.10;;;12.30;99.90;;;;;;4888344;28;20510;-83
2021/04/09 13:25:09;;;;;;;4.88;2.97;;;12.30;99.90;;;;;;4877142;28;20112;-84
2021/04/09 13:27:35;;;;;;;8.32;3.10;;;12.40;99.90;;;;;;4858980;28;20509;-84
2021/04/09 13:29:59;;;;;;;10.57;3.53;;;12.20;99.90;;;;;;4863400;28;20105;-85
2021/04/09 13:32:21;;;;;;;4.97;3.10;;;12.20;99.90;;;;;;4857720;28;20083;-82
2021/04/09 13:34:44;;;;;;;13.07;3.58;;;12.30;99.90;;;;;;4854666;28;23692;-85
2021/04/09 13:37:07;;;;;;;5.45;2.85;;;12.50;99.90;;;;;;4856475;28;20311;-84
2021/04/09 13:39:30;;;;;;;7.07;3.17;;;12.70;99.90;;;;;;4889884;28;20131;-84